Ajo, Arizona
Current Conditions -  °F | °C
As of 12:56 AM on Friday 24 Oct 2014 (Local Time) from KGXF Reporting Station
Clear Clear  
Wind Chill: 70°   Ceiling: Unl
Heat Index: 70°   Visibility: 10mi
Dew Point: 48°   Wind: 3mph
Humidity: 46%   Direction: 90°E
Pressure: 29.98"   Gusts: NA
Location:  32.37°N, 112.86°W
Report Text: KGXF 240756Z AUTO 09003KT 10SM CLR 21/09 A2998 RMK AO2 SLPNO T02130091
Loading
Personal Weather Stations






























Interactive Weather Map New forecast layout! Learn more

10-Day Weather Forecast

Advertisements
Track Severe Weather on mobile